createdAt,value
2023-02-17T00:01:23.006Z,7.50
2023-02-17T00:06:22.085Z,7.55
2023-02-17T00:11:19.442Z,7.53
2023-02-17T00:16:21.503Z,7.56
2023-02-17T00:21:20.966Z,7.63
2023-02-17T00:26:18.325Z,7.67
2023-02-17T00:31:18.394Z,7.66
2023-02-17T00:36:18.449Z,7.70
2023-02-17T00:41:19.147Z,7.71
2023-02-17T00:46:17.817Z,7.73
2023-02-17T00:51:15.674Z,7.78
2023-02-17T00:56:12.707Z,7.81
2023-02-17T01:01:10.893Z,7.83
2023-02-17T01:06:09.961Z,7.85
2023-02-17T01:11:06.392Z,7.86
2023-02-17T01:16:02.904Z,7.85
2023-02-17T01:20:59.316Z,7.87
2023-02-17T01:25:55.681Z,7.88
2023-02-17T01:30:52.164Z,7.87
2023-02-17T01:35:48.490Z,7.91
2023-02-17T01:40:48.340Z,7.93
2023-02-17T01:46:07.413Z,7.95
2023-02-17T01:51:33.245Z,7.93
2023-02-17T01:56:31.783Z,7.94
2023-02-17T02:01:28.846Z,7.94
2023-02-17T02:06:27.337Z,7.94
2023-02-17T02:11:24.188Z,7.97
2023-02-17T02:16:27.246Z,7.96
2023-02-17T02:21:52.554Z,7.96
2023-02-17T02:27:15.418Z,7.99
2023-02-17T02:32:36.066Z,8.00
2023-02-17T02:37:50.793Z,8.03
2023-02-17T02:42:47.221Z,8.06
2023-02-17T02:47:48.318Z,8.08
2023-02-17T02:52:51.357Z,8.12
2023-02-17T02:58:13.727Z,8.16
2023-02-17T03:03:16.744Z,8.17
2023-02-17T03:08:28.262Z,8.19
2023-02-17T03:13:25.411Z,8.23
2023-02-17T03:18:21.761Z,8.25
2023-02-17T03:23:18.508Z,8.26
2023-02-17T03:28:15.629Z,8.24
2023-02-17T03:33:12.010Z,8.24
2023-02-17T03:38:08.394Z,8.24
2023-02-17T03:43:04.817Z,8.25
2023-02-17T03:48:01.170Z,8.26
2023-02-17T03:52:57.699Z,8.28
2023-02-17T03:57:54.020Z,8.29
2023-02-17T04:02:50.388Z,8.30
2023-02-17T04:07:46.731Z,8.30
2023-02-17T04:12:43.179Z,8.34
2023-02-17T04:17:39.505Z,8.33
2023-02-17T04:22:36.032Z,8.34
2023-02-17T04:27:32.401Z,8.43
2023-02-17T04:32:28.736Z,8.45
2023-02-17T04:37:25.102Z,8.52
2023-02-17T04:42:21.438Z,8.54
2023-02-17T04:47:17.827Z,8.57
2023-02-17T04:52:14.182Z,8.58
2023-02-17T04:57:10.636Z,8.62
2023-02-17T05:02:07.076Z,8.66
2023-02-17T05:07:03.480Z,8.65
2023-02-17T05:11:59.843Z,8.66
2023-02-17T05:16:56.186Z,8.71
2023-02-17T05:21:52.555Z,8.70
2023-02-17T05:26:49.011Z,8.73
2023-02-17T05:31:45.618Z,8.78
2023-02-17T05:36:42.044Z,8.81
2023-02-17T05:41:38.380Z,8.87
2023-02-17T05:46:35.082Z,8.90
2023-02-17T05:51:31.555Z,8.92
2023-02-17T05:56:28.103Z,8.89
2023-02-17T06:01:24.452Z,8.85
2023-02-17T06:06:20.920Z,8.87
2023-02-17T06:11:17.332Z,8.85
2023-02-17T06:16:13.923Z,8.90
2023-02-17T06:21:10.332Z,8.94
2023-02-17T06:26:06.994Z,8.98
2023-02-17T06:31:03.791Z,8.95
2023-02-17T06:36:00.262Z,8.97
2023-02-17T06:40:56.661Z,9.00
2023-02-17T06:45:53.383Z,9.00
2023-02-17T06:50:50.201Z,9.12
2023-02-17T06:55:46.901Z,9.19
2023-02-17T07:00:43.334Z,9.25
2023-02-17T07:05:40.232Z,9.25
2023-02-17T07:10:37.727Z,9.28
2023-02-17T07:15:35.459Z,9.32
2023-02-17T07:20:32.428Z,9.31
2023-02-17T07:25:28.767Z,9.36
2023-02-17T07:30:25.173Z,9.40
2023-02-17T07:35:21.649Z,9.45
2023-02-17T07:40:18.192Z,9.38
2023-02-17T07:45:14.575Z,9.33
2023-02-17T07:50:11.422Z,9.32
2023-02-17T07:55:08.146Z,9.34
2023-02-17T08:00:05.964Z,9.31
2023-02-17T08:05:02.331Z,9.27
2023-02-17T08:10:17.921Z,9.28
2023-02-17T08:15:14.493Z,9.26
2023-02-17T08:20:13.265Z,9.22
2023-02-17T08:25:10.055Z,9.21
2023-02-17T08:30:07.674Z,9.22
2023-02-17T08:35:05.543Z,9.20
2023-02-17T08:40:02.032Z,9.22
2023-02-17T08:44:58.401Z,9.25
2023-02-17T08:49:54.937Z,9.24
2023-02-17T08:54:52.703Z,9.28
2023-02-17T08:59:49.478Z,9.33
2023-02-17T09:04:46.155Z,9.41
2023-02-17T09:09:43.467Z,9.45
2023-02-17T09:14:40.208Z,9.47
2023-02-17T09:19:38.854Z,9.48
2023-02-17T09:24:38.542Z,9.52
2023-02-17T09:29:38.090Z,9.56
2023-02-17T09:34:37.349Z,9.61
2023-02-17T09:39:33.685Z,9.66
2023-02-17T09:44:40.767Z,9.73
2023-02-17T09:49:42.901Z,9.75
2023-02-17T09:55:01.276Z,9.80
2023-02-17T10:00:01.650Z,9.85
2023-02-17T10:05:03.176Z,9.82
2023-02-17T10:10:14.109Z,9.86
2023-02-17T10:15:26.391Z,9.89
2023-02-17T10:20:28.478Z,9.95
2023-02-17T10:25:44.021Z,10.07
2023-02-17T10:30:50.442Z,10.19
2023-02-17T10:36:10.333Z,10.24
2023-02-17T10:41:12.390Z,10.28
2023-02-17T10:46:09.955Z,10.35
2023-02-17T10:51:06.828Z,10.41
2023-02-17T10:56:11.628Z,10.50
2023-02-17T11:01:08.581Z,10.62
2023-02-17T11:06:07.365Z,10.75
2023-02-17T11:11:25.680Z,10.83
2023-02-17T11:16:27.483Z,10.88
2023-02-17T11:21:23.882Z,10.95
2023-02-17T11:26:27.464Z,11.04
2023-02-17T11:31:30.626Z,11.18
2023-02-17T11:36:30.268Z,11.26
2023-02-17T11:41:26.635Z,11.24
2023-02-17T11:46:31.945Z,11.30
2023-02-17T11:51:56.089Z,11.36
2023-02-17T11:57:24.400Z,11.43
2023-02-17T12:02:39.362Z,11.48
2023-02-17T12:07:40.504Z,11.50
2023-02-17T12:12:55.250Z,11.49
2023-02-17T12:18:24.368Z,11.45
2023-02-17T12:23:52.570Z,11.43
2023-02-17T12:29:12.330Z,11.43
2023-02-17T12:34:29.934Z,11.46
2023-02-17T12:39:40.860Z,11.47
2023-02-17T12:44:43.496Z,11.44
2023-02-17T12:49:46.219Z,11.44
2023-02-17T12:54:53.003Z,11.42
2023-02-17T12:59:51.956Z,11.44
2023-02-17T13:04:57.137Z,11.44
2023-02-17T13:09:55.510Z,11.41
2023-02-17T13:14:53.664Z,11.37
2023-02-17T13:20:05.075Z,11.35
2023-02-17T13:25:01.382Z,11.32
2023-02-17T13:30:02.868Z,11.34
2023-02-17T13:35:06.169Z,11.31
2023-02-17T13:40:17.927Z,11.29
2023-02-17T13:45:28.574Z,11.26
2023-02-17T13:50:31.180Z,10.98
2023-02-17T13:55:27.655Z,10.50
2023-02-17T14:00:31.725Z,10.29
2023-02-17T14:05:40.347Z,10.16
2023-02-17T14:10:36.795Z,10.14
2023-02-17T14:15:33.205Z,10.12
2023-02-17T14:20:36.288Z,10.07
2023-02-17T14:25:36.318Z,10.01
2023-02-17T14:30:32.726Z,9.97
2023-02-17T14:35:29.563Z,9.95
2023-02-17T14:40:26.307Z,10.01
2023-02-17T14:45:22.780Z,10.05
2023-02-17T14:50:19.122Z,10.12
2023-02-17T14:55:30.803Z,10.11
2023-02-17T15:00:27.889Z,10.16
2023-02-17T15:05:25.224Z,10.23
2023-02-17T15:10:27.342Z,10.25
2023-02-17T15:15:23.748Z,10.29
2023-02-17T15:20:20.114Z,10.30
2023-02-17T15:25:24.093Z,10.34
2023-02-17T15:30:21.297Z,10.35
2023-02-17T15:35:22.885Z,10.36
2023-02-17T15:40:21.963Z,10.40
2023-02-17T15:45:20.318Z,10.44
2023-02-17T15:50:22.983Z,10.38
2023-02-17T15:55:20.320Z,10.32
2023-02-17T16:00:24.366Z,10.37
2023-02-17T16:05:24.151Z,10.35
2023-02-17T16:10:23.503Z,10.36
2023-02-17T16:15:22.825Z,10.38
2023-02-17T16:20:25.327Z,10.40
2023-02-17T16:25:23.037Z,10.39
2023-02-17T16:30:29.487Z,10.39
2023-02-17T16:35:29.098Z,10.40
2023-02-17T16:40:28.371Z,10.38
2023-02-17T16:45:27.890Z,10.41
2023-02-17T16:50:34.786Z,10.45
2023-02-17T16:55:34.426Z,10.45
2023-02-17T17:00:32.890Z,10.46
2023-02-17T17:05:29.431Z,10.49
2023-02-17T17:10:31.138Z,10.50
2023-02-17T17:15:28.189Z,10.55
2023-02-17T17:20:36.789Z,10.57
2023-02-17T17:25:36.545Z,10.55
2023-02-17T17:30:38.231Z,10.58
2023-02-17T17:35:34.804Z,10.59
2023-02-17T17:40:48.019Z,10.58
2023-02-17T17:45:44.559Z,10.58
2023-02-17T17:50:41.819Z,10.64
2023-02-17T17:55:38.297Z,10.57
2023-02-17T18:00:34.710Z,10.54
2023-02-17T18:05:31.122Z,10.53
2023-02-17T18:10:27.560Z,10.54
2023-02-17T18:15:24.533Z,10.57
2023-02-17T18:20:21.174Z,10.47
2023-02-17T18:25:18.170Z,10.04
2023-02-17T18:30:18.912Z,9.76
2023-02-17T18:35:16.151Z,9.59
2023-02-17T18:40:15.351Z,9.47
2023-02-17T18:45:12.299Z,9.35
2023-02-17T18:50:10.188Z,9.28
2023-02-17T18:55:07.120Z,9.15
2023-02-17T19:00:05.579Z,8.91
2023-02-17T19:05:01.836Z,8.79
2023-02-17T19:09:58.452Z,8.65
2023-02-17T19:14:56.063Z,8.65
2023-02-17T19:19:52.571Z,8.58
2023-02-17T19:24:53.413Z,8.53
2023-02-17T19:29:49.740Z,8.49
2023-02-17T19:34:46.061Z,8.44
2023-02-17T19:39:42.381Z,8.45
2023-02-17T19:44:38.728Z,8.31
2023-02-17T19:49:35.524Z,8.22
2023-02-17T19:54:32.887Z,8.18
2023-02-17T19:59:31.989Z,8.18
2023-02-17T20:04:28.305Z,8.10
2023-02-17T20:09:24.654Z,8.06
2023-02-17T20:14:21.734Z,7.96
2023-02-17T20:19:18.136Z,7.99
2023-02-17T20:24:14.929Z,8.00
2023-02-17T20:29:12.144Z,7.92
2023-02-17T20:34:22.123Z,7.76
2023-02-17T20:39:19.841Z,7.76
2023-02-17T20:44:16.242Z,7.73
2023-02-17T20:49:13.982Z,7.70
2023-02-17T20:54:10.310Z,7.69
2023-02-17T20:59:08.903Z,7.73
2023-02-17T21:04:05.270Z,7.74
2023-02-17T21:09:06.409Z,7.63
2023-02-17T21:14:02.807Z,7.58
2023-02-17T21:19:00.829Z,7.53
2023-02-17T21:23:57.652Z,7.51
2023-02-17T21:28:54.757Z,7.52
2023-02-17T21:33:51.357Z,7.75
2023-02-17T21:38:47.968Z,7.85
2023-02-17T21:44:03.227Z,7.76
2023-02-17T21:49:01.053Z,7.79
2023-02-17T21:53:57.886Z,7.74
2023-02-17T21:58:54.957Z,7.74
2023-02-17T22:03:52.271Z,7.69
2023-02-17T22:08:49.083Z,7.55
2023-02-17T22:13:45.575Z,7.62
2023-02-17T22:18:41.980Z,7.53
2023-02-17T22:23:39.550Z,7.40
2023-02-17T22:28:36.011Z,7.33
2023-02-17T22:33:32.465Z,7.25
2023-02-17T22:38:28.950Z,7.16
2023-02-17T22:43:25.424Z,7.05
2023-02-17T22:48:21.700Z,6.99
2023-02-17T22:53:18.446Z,6.88
2023-02-17T22:58:15.238Z,6.76
2023-02-17T23:03:11.600Z,6.73
2023-02-17T23:08:07.972Z,6.70
2023-02-17T23:13:04.340Z,6.65
2023-02-17T23:18:00.700Z,6.59
2023-02-17T23:22:57.310Z,6.53
2023-02-17T23:27:53.693Z,6.59
2023-02-17T23:32:50.097Z,6.42
2023-02-17T23:37:46.403Z,6.16
2023-02-17T23:42:43.014Z,6.13
2023-02-17T23:47:39.301Z,5.96
2023-02-17T23:52:35.767Z,5.89
2023-02-17T23:57:36.037Z,5.99
